createdAt,value
2018-05-08T00:00:31.280Z,97.91
2018-05-08T00:01:31.294Z,97.91
2018-05-08T00:02:31.291Z,97.71
2018-05-08T00:03:31.451Z,97.52
2018-05-08T00:04:31.314Z,97.91
2018-05-08T00:05:31.340Z,97.62
2018-05-08T00:06:31.351Z,97.81
2018-05-08T00:07:31.388Z,97.62
2018-05-08T00:08:31.590Z,97.91
2018-05-08T00:09:31.425Z,97.91
2018-05-08T00:10:31.417Z,97.62
2018-05-08T00:11:31.455Z,98.14
2018-05-08T00:12:31.452Z,98.05
2018-05-08T00:13:31.599Z,97.76
2018-05-08T00:14:31.457Z,98.05
2018-05-08T00:15:31.503Z,98.63
2018-05-08T00:16:31.492Z,98.14
2018-05-08T00:17:31.508Z,98.34
2018-05-08T00:18:31.619Z,98.91
2018-05-08T00:19:31.538Z,99.01
2018-05-08T00:20:31.569Z,98.29
2018-05-08T00:21:31.559Z,98.43
2018-05-08T00:22:31.570Z,98.34
2018-05-08T00:23:31.577Z,98.43
2018-05-08T00:24:31.745Z,98.34
2018-05-08T00:25:31.606Z,98.63
2018-05-08T00:26:31.626Z,98.91
2018-05-08T00:27:31.641Z,98.14
2018-05-08T00:28:31.661Z,98.43
2018-05-08T00:29:31.820Z,98.53
2018-05-08T00:30:31.688Z,98.05
2018-05-08T00:31:31.690Z,97.47
2018-05-08T00:32:31.830Z,97.86
2018-05-08T00:33:31.848Z,97.96
2018-05-08T00:34:31.836Z,97.66
2018-05-08T00:35:31.757Z,97.57
2018-05-08T00:36:31.762Z,97.57
2018-05-08T00:37:31.784Z,97.57
2018-05-08T00:38:31.796Z,97.19
2018-05-08T00:39:31.815Z,97.47
2018-05-08T00:40:31.921Z,97.66
2018-05-08T00:41:31.843Z,97.76
2018-05-08T00:42:31.862Z,97.86
2018-05-08T00:43:31.994Z,96.89
2018-05-08T00:44:32.008Z,97.76
2018-05-08T00:45:31.993Z,97.66
2018-05-08T00:46:31.909Z,97.66
2018-05-08T00:47:31.921Z,97.81
2018-05-08T00:48:31.945Z,97.47
2018-05-08T00:49:31.952Z,97.81
2018-05-08T00:50:32.124Z,98.39
2018-05-08T00:51:31.979Z,97.24
2018-05-08T00:52:32.002Z,97.42
2018-05-08T00:53:32.012Z,97.52
2018-05-08T00:54:32.032Z,97.62
2018-05-08T00:55:32.147Z,97.14
2018-05-08T00:56:32.181Z,97.71
2018-05-08T00:57:32.076Z,97.14
2018-05-08T00:58:32.094Z,97.62
2018-05-08T00:59:32.226Z,97.52
2018-05-08T01:00:32.336Z,97.52
2018-05-08T01:01:32.132Z,97.52
2018-05-08T01:02:32.139Z,97.62
2018-05-08T01:03:32.282Z,97.24
2018-05-08T01:04:32.188Z,97.04
2018-05-08T01:05:32.299Z,97.04
2018-05-08T01:06:32.212Z,97.24
2018-05-08T01:07:32.292Z,97.33
2018-05-08T01:08:32.236Z,97.14
2018-05-08T01:09:32.242Z,97.62
2018-05-08T01:10:32.417Z,97.47
2018-05-08T01:11:32.291Z,97.38
2018-05-08T01:12:32.295Z,98.05
2018-05-08T01:13:32.429Z,97.38
2018-05-08T01:14:32.322Z,98.05
2018-05-08T01:15:32.457Z,97.66
2018-05-08T01:16:32.579Z,97.76
2018-05-08T01:17:32.487Z,97.52
2018-05-08T01:18:32.390Z,97.76
2018-05-08T01:19:32.399Z,98.05
2018-05-08T01:20:32.408Z,97.91
2018-05-08T01:21:32.426Z,97.81
2018-05-08T01:22:32.536Z,97.81
2018-05-08T01:23:32.454Z,97.81
2018-05-08T01:24:32.462Z,97.91
2018-05-08T01:25:32.483Z,97.71
2018-05-08T01:26:32.499Z,97.91
2018-05-08T01:27:32.734Z,97.91
2018-05-08T01:28:32.518Z,97.81
2018-05-08T01:29:32.538Z,98.00
2018-05-08T01:30:32.551Z,98.29
2018-05-08T01:31:32.584Z,98.19
2018-05-08T01:32:32.806Z,97.71
2018-05-08T01:33:32.599Z,98.19
2018-05-08T01:34:32.612Z,98.00
2018-05-08T01:35:32.622Z,98.10
2018-05-08T01:36:32.646Z,97.81
2018-05-08T01:37:32.750Z,98.10
2018-05-08T01:38:32.662Z,98.48
2018-05-08T01:39:32.691Z,98.29
2018-05-08T01:40:32.819Z,98.38
2018-05-08T01:41:32.830Z,98.29
2018-05-08T01:42:32.728Z,98.53
2018-05-08T01:43:32.896Z,98.53
2018-05-08T01:44:32.745Z,98.14
2018-05-08T01:45:32.762Z,97.95
2018-05-08T01:46:32.783Z,98.72
2018-05-08T01:47:32.790Z,98.72
2018-05-08T01:48:32.913Z,98.05
2018-05-08T01:49:32.820Z,98.72
2018-05-08T01:50:32.832Z,98.82
2018-05-08T01:51:32.854Z,98.05
2018-05-08T01:52:32.989Z,98.43
2018-05-08T01:53:32.983Z,98.62
2018-05-08T01:54:32.903Z,98.67
2018-05-08T01:55:32.913Z,98.77
2018-05-08T01:56:32.925Z,98.77
2018-05-08T01:57:32.941Z,98.58
2018-05-08T01:58:33.054Z,98.77
2018-05-08T01:59:32.965Z,98.29
2018-05-08T02:00:32.982Z,98.96
2018-05-08T02:01:32.989Z,98.10
2018-05-08T02:02:33.133Z,98.19
2018-05-08T02:03:33.127Z,98.29
2018-05-08T02:04:33.031Z,98.38
2018-05-08T02:05:33.173Z,98.53
2018-05-08T02:06:33.074Z,98.72
2018-05-08T02:07:33.073Z,98.38
2018-05-08T02:08:33.315Z,98.33
2018-05-08T02:09:33.229Z,98.53
2018-05-08T02:10:33.116Z,98.24
2018-05-08T02:11:33.140Z,98.33
2018-05-08T02:12:33.149Z,98.53
2018-05-08T02:13:33.270Z,98.72
2018-05-08T02:14:33.175Z,98.62
2018-05-08T02:15:33.197Z,98.33
2018-05-08T02:16:33.329Z,98.53
2018-05-08T02:17:33.230Z,98.53
2018-05-08T02:18:33.231Z,98.82
2018-05-08T02:19:33.345Z,98.62
2018-05-08T02:20:33.386Z,98.33
2018-05-08T02:21:33.399Z,98.62
2018-05-08T02:22:33.416Z,98.58
2018-05-08T02:23:33.301Z,98.62
2018-05-08T02:24:33.492Z,98.24
2018-05-08T02:25:33.456Z,98.14
2018-05-08T02:26:33.352Z,98.72
2018-05-08T02:27:33.359Z,98.43
2018-05-08T02:28:33.380Z,99.29
2018-05-08T02:29:33.487Z,99.20
2018-05-08T02:30:33.530Z,99.15
2018-05-08T02:31:33.416Z,99.63
2018-05-08T02:32:33.434Z,99.05
2018-05-08T02:33:33.444Z,99.54
2018-05-08T02:34:33.517Z,99.63
2018-05-08T02:35:33.476Z,98.58
2018-05-08T02:36:33.495Z,98.29
2018-05-08T02:37:33.500Z,98.77
2018-05-08T02:38:33.641Z,98.77
2018-05-08T02:39:33.635Z,98.77
2018-05-08T02:40:33.550Z,98.19
2018-05-08T02:41:33.562Z,98.63
2018-05-08T02:42:33.658Z,98.63
2018-05-08T02:43:33.588Z,98.14
2018-05-08T02:44:33.826Z,98.63
2018-05-08T02:45:33.744Z,98.34
2018-05-08T02:46:33.637Z,98.14
2018-05-08T02:47:33.645Z,98.14
2018-05-08T02:48:33.666Z,97.57
2018-05-08T02:49:33.771Z,98.34
2018-05-08T02:50:33.698Z,97.96
2018-05-08T02:51:33.701Z,97.76
2018-05-08T02:52:33.883Z,98.05
2018-05-08T02:53:33.855Z,97.86
2018-05-08T02:54:33.847Z,97.47
2018-05-08T02:55:33.887Z,97.47
2018-05-08T02:56:33.770Z,97.86
2018-05-08T02:57:33.913Z,97.57
2018-05-08T02:58:33.799Z,98.14
2018-05-08T02:59:33.874Z,97.86
2018-05-08T03:00:33.829Z,97.66
2018-05-08T03:01:33.852Z,97.57
2018-05-08T03:02:33.866Z,97.38
2018-05-08T03:03:33.873Z,97.47
2018-05-08T03:04:33.996Z,97.66
2018-05-08T03:05:33.907Z,97.66
2018-05-08T03:06:34.045Z,97.66
2018-05-08T03:07:33.930Z,97.28
2018-05-08T03:08:34.071Z,97.47
2018-05-08T03:09:34.059Z,97.66
2018-05-08T03:10:33.975Z,97.28
2018-05-08T03:11:33.998Z,97.47
2018-05-08T03:12:34.133Z,97.76
2018-05-08T03:13:34.146Z,97.61
2018-05-08T03:14:34.136Z,98.14
2018-05-08T03:15:34.053Z,97.81
2018-05-08T03:16:34.061Z,98.48
2018-05-08T03:17:34.081Z,98.77
2018-05-08T03:18:34.089Z,98.58
2018-05-08T03:19:34.210Z,98.38
2018-05-08T03:20:34.118Z,98.10
2018-05-08T03:21:34.139Z,98.19
2018-05-08T03:22:34.158Z,98.58
2018-05-08T03:23:34.169Z,98.29
2018-05-08T03:24:34.288Z,98.38
2018-05-08T03:25:34.204Z,98.29
2018-05-08T03:26:34.333Z,98.29
2018-05-08T03:27:34.231Z,98.10
2018-05-08T03:28:34.230Z,98.58
2018-05-08T03:29:34.360Z,98.58
2018-05-08T03:30:34.270Z,98.91
2018-05-08T03:31:34.280Z,98.05
2018-05-08T03:32:34.298Z,98.10
2018-05-08T03:33:34.433Z,98.58
2018-05-08T03:34:34.417Z,98.72
2018-05-08T03:35:34.339Z,98.48
2018-05-08T03:36:34.473Z,98.19
2018-05-08T03:37:34.369Z,98.48
2018-05-08T03:38:34.386Z,98.58
2018-05-08T03:39:34.490Z,98.00
2018-05-08T03:40:34.412Z,98.86
2018-05-08T03:41:34.432Z,98.29
2018-05-08T03:42:34.432Z,98.77
2018-05-08T03:43:34.455Z,98.19
2018-05-08T03:44:34.570Z,98.29
2018-05-08T03:45:34.483Z,98.77
2018-05-08T03:46:34.617Z,98.48
2018-05-08T03:47:34.631Z,98.62
2018-05-08T03:48:34.647Z,98.82
2018-05-08T03:49:34.633Z,98.24
2018-05-08T03:50:34.555Z,98.24
2018-05-08T03:51:34.562Z,98.33
2018-05-08T03:52:34.582Z,98.62
2018-05-08T03:53:34.590Z,98.91
2018-05-08T03:54:34.704Z,98.72
2018-05-08T03:55:34.617Z,98.72
2018-05-08T03:56:34.651Z,99.10
2018-05-08T03:57:34.771Z,99.39
2018-05-08T03:58:34.657Z,99.39
2018-05-08T03:59:34.786Z,99.10
2018-05-08T04:00:34.697Z,99.29
2018-05-08T04:01:34.703Z,98.91
2018-05-08T04:02:34.717Z,99.49
2018-05-08T04:03:34.738Z,99.99
2018-05-08T04:04:34.746Z,99.96
2018-05-08T04:05:34.865Z,99.87
2018-05-08T04:06:34.772Z,99.99
2018-05-08T04:07:34.794Z,99.99
2018-05-08T04:08:34.794Z,99.82
2018-05-08T04:09:34.822Z,99.99
2018-05-08T04:10:34.938Z,99.99
2018-05-08T04:11:34.853Z,99.82
2018-05-08T04:12:34.984Z,99.49
2018-05-08T04:13:34.876Z,99.29
2018-05-08T04:14:34.891Z,99.10
2018-05-08T04:15:35.076Z,99.10
2018-05-08T04:16:34.923Z,99.49
2018-05-08T04:17:34.941Z,99.20
2018-05-08T04:18:34.951Z,99.29
2018-05-08T04:19:34.957Z,99.68
2018-05-08T04:20:35.079Z,99.49
2018-05-08T04:21:34.987Z,99.49
2018-05-08T04:22:35.011Z,99.34
2018-05-08T04:23:35.011Z,99.10
2018-05-08T04:24:35.035Z,98.82
2018-05-08T04:25:35.143Z,99.29
2018-05-08T04:26:35.055Z,98.24
2018-05-08T04:27:35.195Z,98.33
2018-05-08T04:28:35.088Z,98.05
2018-05-08T04:29:35.112Z,98.33
2018-05-08T04:30:35.211Z,98.62
2018-05-08T04:31:35.252Z,99.10
2018-05-08T04:32:35.152Z,99.10
2018-05-08T04:33:35.169Z,99.68
2018-05-08T04:34:35.174Z,99.20
2018-05-08T04:35:35.289Z,99.49
2018-05-08T04:36:35.221Z,99.39
2018-05-08T04:37:35.217Z,99.39
2018-05-08T04:38:35.351Z,99.20
2018-05-08T04:39:35.369Z,99.01
2018-05-08T04:40:35.477Z,99.39
2018-05-08T04:41:35.392Z,99.49
2018-05-08T04:42:35.281Z,99.01
2018-05-08T04:43:35.303Z,99.44
2018-05-08T04:44:35.307Z,99.44
2018-05-08T04:45:35.430Z,99.63
2018-05-08T04:46:35.344Z,99.24
2018-05-08T04:47:35.352Z,99.05
2018-05-08T04:48:35.371Z,99.24
2018-05-08T04:49:35.384Z,99.05
2018-05-08T04:50:35.670Z,99.44
2018-05-08T04:51:35.532Z,99.44
2018-05-08T04:52:35.546Z,99.53
2018-05-08T04:53:35.441Z,99.91
2018-05-08T04:54:35.579Z,99.99
2018-05-08T04:55:35.575Z,99.91
2018-05-08T04:56:35.483Z,99.73
2018-05-08T04:57:35.614Z,99.73
2018-05-08T04:58:35.511Z,99.99
2018-05-08T04:59:35.517Z,99.99
2018-05-08T05:00:35.537Z,99.82
2018-05-08T05:01:35.770Z,99.53
2018-05-08T05:02:35.591Z,99.73
2018-05-08T05:03:35.584Z,99.63
2018-05-08T05:04:35.587Z,99.91
2018-05-08T05:05:35.607Z,99.82
2018-05-08T05:06:35.627Z,99.91
2018-05-08T05:07:35.856Z,99.99
2018-05-08T05:08:35.772Z,99.99
2018-05-08T05:09:35.663Z,99.99
2018-05-08T05:10:35.796Z,99.99
2018-05-08T05:11:35.811Z,99.99
2018-05-08T05:12:35.801Z,99.73
2018-05-08T05:13:35.708Z,99.99
2018-05-08T05:14:35.731Z,99.99
2018-05-08T05:15:35.864Z,99.99
2018-05-08T05:16:35.812Z,99.99
2018-05-08T05:17:35.917Z,99.99
2018-05-08T05:18:35.907Z,99.99
2018-05-08T05:19:35.924Z,99.99
2018-05-08T05:20:35.819Z,99.99
2018-05-08T05:21:35.827Z,99.99
2018-05-08T05:22:35.947Z,99.99
2018-05-08T05:23:35.856Z,99.99
2018-05-08T05:24:36.076Z,99.99
2018-05-08T05:25:35.873Z,99.99
2018-05-08T05:26:35.903Z,99.99
2018-05-08T05:27:36.013Z,99.99
2018-05-08T05:28:36.042Z,99.99
2018-05-08T05:29:35.940Z,99.99
2018-05-08T05:30:35.944Z,99.99
2018-05-08T05:31:35.990Z,99.99
2018-05-08T05:32:36.071Z,99.99
2018-05-08T05:33:35.994Z,99.91
2018-05-08T05:34:36.008Z,99.99
2018-05-08T05:35:36.017Z,99.63
2018-05-08T05:36:36.035Z,99.99
2018-05-08T05:37:36.140Z,99.91
2018-05-08T05:38:36.191Z,99.99
2018-05-08T05:39:36.195Z,99.53
2018-05-08T05:40:36.208Z,99.29
2018-05-08T05:41:36.222Z,98.91
2018-05-08T05:42:36.284Z,99.01
2018-05-08T05:43:36.132Z,99.39
2018-05-08T05:44:36.145Z,99.87
2018-05-08T05:45:36.155Z,99.99
2018-05-08T05:46:36.180Z,99.99
2018-05-08T05:47:36.409Z,99.87
2018-05-08T05:48:36.201Z,99.87
2018-05-08T05:49:36.332Z,99.99
2018-05-08T05:50:36.234Z,99.99
2018-05-08T05:51:36.243Z,99.99
2018-05-08T05:52:36.356Z,99.99
2018-05-08T05:53:36.263Z,99.99
2018-05-08T05:54:36.278Z,99.99
2018-05-08T05:55:36.298Z,99.99
2018-05-08T05:56:36.307Z,99.99
2018-05-08T05:57:36.428Z,99.99
2018-05-08T05:58:36.334Z,99.99
2018-05-08T05:59:36.356Z,99.82
2018-05-08T06:00:36.356Z,99.99
2018-05-08T06:01:36.380Z,99.99
2018-05-08T06:02:36.496Z,99.99
2018-05-08T06:03:36.404Z,99.99
2018-05-08T06:04:36.539Z,99.99
2018-05-08T06:05:36.552Z,99.99
2018-05-08T06:06:36.445Z,99.99
2018-05-08T06:07:36.568Z,99.99
2018-05-08T06:08:36.593Z,99.99
2018-05-08T06:09:36.611Z,99.99
2018-05-08T06:10:36.502Z,99.99
2018-05-08T06:11:36.634Z,99.99
2018-05-08T06:12:36.629Z,99.99
2018-05-08T06:13:36.664Z,99.99
2018-05-08T06:14:36.674Z,99.99
2018-05-08T06:15:36.690Z,99.99
2018-05-08T06:16:36.702Z,99.99
2018-05-08T06:17:36.595Z,99.99
2018-05-08T06:18:36.812Z,99.99
2018-05-08T06:19:36.626Z,99.99
2018-05-08T06:20:36.639Z,99.99
2018-05-08T06:21:36.651Z,99.99
2018-05-08T06:22:36.666Z,99.99
2018-05-08T06:23:36.779Z,99.99
2018-05-08T06:24:36.692Z,99.99
2018-05-08T06:25:36.827Z,99.99
2018-05-08T06:26:36.923Z,99.99
2018-05-08T06:27:36.740Z,99.99
2018-05-08T06:28:37.060Z,99.99
2018-05-08T06:29:36.755Z,99.99
2018-05-08T06:30:36.770Z,99.99
2018-05-08T06:31:36.803Z,99.99
2018-05-08T06:32:36.793Z,99.99
2018-05-08T06:33:36.920Z,99.99
2018-05-08T06:34:36.830Z,99.99
2018-05-08T06:35:36.962Z,99.99
2018-05-08T06:36:36.856Z,99.99
2018-05-08T06:37:36.993Z,99.99
2018-05-08T06:38:36.976Z,99.99
2018-05-08T06:39:36.985Z,99.99
2018-05-08T06:40:37.031Z,99.99
2018-05-08T06:41:36.926Z,99.99
2018-05-08T06:42:36.945Z,99.99
2018-05-08T06:44:37.089Z,99.99
2018-05-08T06:45:36.972Z,99.99
2018-05-08T06:46:36.999Z,99.99
2018-05-08T06:47:37.010Z,99.99
2018-05-08T06:48:37.246Z,99.99
2018-05-08T06:50:37.051Z,99.96
2018-05-08T06:51:37.056Z,99.99
2018-05-08T06:52:37.198Z,99.96
2018-05-08T06:53:37.193Z,99.77
2018-05-08T06:54:37.098Z,99.68
2018-05-08T06:55:37.241Z,99.58
2018-05-08T06:56:37.256Z,99.77
2018-05-08T06:57:37.141Z,99.99
2018-05-08T06:58:37.257Z,99.01
2018-05-08T06:59:37.291Z,99.99
2018-05-08T07:00:37.312Z,99.99
2018-05-08T07:01:37.327Z,99.49
2018-05-08T07:02:37.211Z,99.58
2018-05-08T07:03:37.455Z,99.77
2018-05-08T07:04:37.239Z,99.68
2018-05-08T07:05:37.383Z,99.77
2018-05-08T07:06:37.265Z,99.96
2018-05-08T07:07:37.287Z,99.68
2018-05-08T07:08:37.432Z,99.99
2018-05-08T07:09:37.539Z,99.68
2018-05-08T07:10:37.329Z,99.77
2018-05-08T07:11:37.463Z,99.68
2018-05-08T07:12:37.473Z,99.77
2018-05-08T07:13:37.365Z,99.49
2018-05-08T07:14:37.611Z,99.96
2018-05-08T07:15:37.448Z,99.29
2018-05-08T07:16:37.536Z,99.10
2018-05-08T07:17:37.420Z,99.49
2018-05-08T07:18:37.436Z,99.29
2018-05-08T07:19:37.682Z,99.01
2018-05-08T07:20:37.466Z,99.29
2018-05-08T07:21:37.602Z,99.20
2018-05-08T07:22:37.618Z,99.29
2018-05-08T07:23:37.630Z,99.39
2018-05-08T07:24:37.742Z,99.20
2018-05-08T07:25:37.665Z,99.29
2018-05-08T07:26:37.671Z,99.49
2018-05-08T07:27:37.689Z,99.29
2018-05-08T07:28:37.700Z,99.58
2018-05-08T07:29:37.820Z,99.58
2018-05-08T07:30:37.767Z,99.49
2018-05-08T07:31:37.619Z,99.73
2018-05-08T07:32:37.763Z,99.73
2018-05-08T07:33:37.648Z,99.99
2018-05-08T07:34:37.892Z,99.99
2018-05-08T07:35:37.680Z,99.54
2018-05-08T07:36:37.824Z,99.54
2018-05-08T07:37:37.705Z,99.82
2018-05-08T07:38:37.729Z,99.73
2018-05-08T07:39:37.956Z,99.34
2018-05-08T07:40:37.873Z,98.77
2018-05-08T07:41:37.765Z,98.96
2018-05-08T07:42:37.777Z,98.96
2018-05-08T07:43:37.913Z,99.34
2018-05-08T07:44:37.811Z,98.19
2018-05-08T07:45:37.925Z,98.19
2018-05-08T07:46:37.833Z,99.05
2018-05-08T07:47:37.977Z,99.15
2018-05-08T07:48:37.862Z,98.19
2018-05-08T07:49:38.006Z,98.19
2018-05-08T07:50:37.993Z,98.38
2018-05-08T07:51:38.029Z,98.38
2018-05-08T07:52:38.048Z,98.58
2018-05-08T07:53:38.061Z,97.91
2018-05-08T07:54:37.955Z,98.10
2018-05-08T07:55:38.194Z,98.10
2018-05-08T07:57:38.021Z,98.10
2018-05-08T07:58:38.005Z,98.19
2018-05-08T07:59:38.142Z,98.29
2018-05-08T08:00:38.134Z,98.19
2018-05-08T08:01:38.173Z,98.10
2018-05-08T08:02:38.192Z,97.95
2018-05-08T08:03:38.087Z,98.33
2018-05-08T08:04:38.221Z,98.14
2018-05-08T08:05:38.337Z,97.95
2018-05-08T08:06:38.134Z,98.05
2018-05-08T08:08:38.146Z,97.95
2018-05-08T08:09:38.291Z,97.76
2018-05-08T08:10:38.279Z,98.33
2018-05-08T08:11:38.200Z,98.72
2018-05-08T08:12:38.207Z,98.91
2018-05-08T08:13:38.232Z,98.82
2018-05-08T08:14:38.242Z,99.10
2018-05-08T08:15:38.478Z,98.72
2018-05-08T08:16:38.275Z,99.01
2018-05-08T08:17:38.277Z,98.72
2018-05-08T08:18:38.366Z,99.10
2018-05-08T08:19:38.318Z,99.20
2018-05-08T08:20:38.447Z,97.76
2018-05-08T08:21:38.559Z,98.43
2018-05-08T08:22:38.346Z,98.24
2018-05-08T08:23:38.370Z,98.53
2018-05-08T08:24:38.377Z,98.72
2018-05-08T08:25:38.398Z,98.53
2018-05-08T08:26:38.530Z,98.14
2018-05-08T08:27:38.533Z,98.33
2018-05-08T08:28:38.557Z,98.19
2018-05-08T08:29:38.481Z,98.91
2018-05-08T08:30:38.469Z,99.25
2018-05-08T08:31:38.472Z,99.34
2018-05-08T08:32:38.608Z,99.25
2018-05-08T08:33:38.628Z,98.96
2018-05-08T08:34:38.545Z,99.25
2018-05-08T08:35:38.552Z,99.15
2018-05-08T08:36:38.554Z,98.96
2018-05-08T08:37:38.659Z,98.96
2018-05-08T08:38:38.701Z,98.96
2018-05-08T08:39:38.583Z,98.58
2018-05-08T08:40:38.729Z,98.48
2018-05-08T08:41:38.743Z,99.15
2018-05-08T08:42:38.630Z,99.25
2018-05-08T08:43:38.747Z,98.38
2018-05-08T08:44:38.662Z,98.24
2018-05-08T08:45:38.800Z,98.10
2018-05-08T08:46:38.688Z,98.05
2018-05-08T08:47:38.808Z,98.00
2018-05-08T08:48:38.726Z,98.63
2018-05-08T08:49:38.836Z,98.00
2018-05-08T08:50:38.755Z,98.19
2018-05-08T08:51:38.887Z,98.24
2018-05-08T08:52:38.776Z,97.71
2018-05-08T08:53:38.803Z,98.29
2018-05-08T08:54:38.906Z,97.91
2018-05-08T08:55:38.821Z,97.38
2018-05-08T08:56:38.959Z,97.76
2018-05-08T08:57:38.847Z,97.47
2018-05-08T08:58:38.860Z,97.57
2018-05-08T08:59:38.978Z,97.47
2018-05-08T09:00:39.018Z,97.76
2018-05-08T09:01:38.906Z,97.19
2018-05-08T09:02:38.917Z,97.47
2018-05-08T09:03:38.942Z,97.14
2018-05-08T09:04:39.175Z,97.24
2018-05-08T09:05:38.970Z,97.14
2018-05-08T09:06:38.985Z,97.04
2018-05-08T09:07:39.119Z,97.42
2018-05-08T09:08:39.014Z,97.52
2018-05-08T09:09:39.244Z,97.71
2018-05-08T09:10:39.159Z,97.71
2018-05-08T09:11:39.060Z,97.52
2018-05-08T09:12:39.070Z,97.47
2018-05-08T09:13:39.201Z,97.95
2018-05-08T09:14:39.193Z,98.05
2018-05-08T09:15:39.232Z,97.66
2018-05-08T09:16:39.126Z,97.91
2018-05-08T09:17:39.260Z,97.91
2018-05-08T09:18:39.152Z,98.10
2018-05-08T09:19:39.262Z,98.00
2018-05-08T09:20:39.186Z,97.91
2018-05-08T09:21:39.202Z,98.19
2018-05-08T09:22:39.216Z,98.00
2018-05-08T09:23:39.228Z,98.29
2018-05-08T09:24:39.458Z,98.10
2018-05-08T09:25:39.244Z,97.71
2018-05-08T09:26:39.262Z,97.42
2018-05-08T09:27:39.409Z,97.42
2018-05-08T09:28:39.412Z,97.61
2018-05-08T09:29:39.413Z,97.33
2018-05-08T09:30:39.323Z,97.61
2018-05-08T09:31:39.455Z,97.04
2018-05-08T09:32:39.351Z,97.61
2018-05-08T09:33:39.413Z,97.42
2018-05-08T09:34:39.471Z,97.42
2018-05-08T09:35:39.393Z,97.61
2018-05-08T09:36:39.399Z,97.42
2018-05-08T09:37:39.422Z,97.71
2018-05-08T09:38:39.556Z,97.56
2018-05-08T09:39:39.668Z,97.56
2018-05-08T09:40:39.581Z,97.28
2018-05-08T09:41:39.476Z,97.47
2018-05-08T09:42:39.496Z,97.76
2018-05-08T09:43:39.625Z,97.52
2018-05-08T09:44:39.625Z,97.91
2018-05-08T09:45:39.653Z,98.10
2018-05-08T09:46:39.546Z,97.61
2018-05-08T09:47:39.563Z,97.71
2018-05-08T09:48:39.568Z,97.81
2018-05-08T09:49:39.808Z,97.61
2018-05-08T09:50:39.606Z,97.52
2018-05-08T09:51:39.738Z,97.52
2018-05-08T09:52:39.633Z,97.42
2018-05-08T09:53:39.765Z,97.24
2018-05-08T09:54:39.761Z,97.24
2018-05-08T09:55:39.795Z,97.57
2018-05-08T09:56:39.686Z,96.99
2018-05-08T09:57:39.696Z,96.99
2018-05-08T09:58:39.718Z,97.38
2018-05-08T09:59:39.952Z,97.19
2018-05-08T10:00:39.784Z,96.99
2018-05-08T10:01:39.759Z,96.99
2018-05-08T10:02:39.762Z,97.47
2018-05-08T10:03:39.912Z,97.09
2018-05-08T10:04:39.911Z,97.28
2018-05-08T10:05:39.825Z,97.24
2018-05-08T10:06:39.954Z,96.85
2018-05-08T10:07:39.859Z,97.42
2018-05-08T10:08:39.850Z,97.33
2018-05-08T10:09:39.979Z,97.47
2018-05-08T10:10:39.888Z,96.85
2018-05-08T10:11:39.922Z,97.24
2018-05-08T10:12:40.051Z,96.27
2018-05-08T10:13:39.941Z,96.66
2018-05-08T10:14:40.058Z,96.94
2018-05-08T10:15:39.990Z,96.75
2018-05-08T10:16:39.983Z,96.75
2018-05-08T10:17:40.003Z,96.27
2018-05-08T10:18:40.029Z,96.27
2018-05-08T10:19:40.154Z,96.37
2018-05-08T10:20:40.246Z,96.27
2018-05-08T10:21:40.066Z,96.37
2018-05-08T10:22:40.083Z,96.08
2018-05-08T10:23:40.217Z,96.32
2018-05-08T10:24:40.210Z,96.22
2018-05-08T10:25:40.150Z,96.32
2018-05-08T10:26:40.215Z,95.89
2018-05-08T10:27:40.154Z,96.46
2018-05-08T10:28:40.185Z,95.60
2018-05-08T10:29:40.399Z,95.94
2018-05-08T10:30:40.228Z,95.60
2018-05-08T10:31:40.344Z,95.94
2018-05-08T10:32:40.362Z,95.98
2018-05-08T10:33:40.374Z,95.98
2018-05-08T10:34:40.416Z,95.89
2018-05-08T10:35:40.304Z,95.79
2018-05-08T10:36:40.306Z,95.89
2018-05-08T10:37:40.320Z,94.97
2018-05-08T10:38:40.330Z,95.45
2018-05-08T10:39:40.350Z,96.12
2018-05-08T10:40:40.638Z,95.16
2018-05-08T10:41:40.385Z,94.78
2018-05-08T10:42:40.547Z,95.55
2018-05-08T10:43:40.409Z,95.69
2018-05-08T10:44:40.436Z,94.82
2018-05-08T10:45:40.601Z,95.11
2018-05-08T10:46:40.595Z,94.96
2018-05-08T10:47:40.608Z,94.34
2018-05-08T10:48:40.498Z,94.34
2018-05-08T10:49:40.512Z,94.10
2018-05-08T10:50:40.642Z,93.71
2018-05-08T10:51:40.561Z,92.79
2018-05-08T10:52:40.691Z,92.83
2018-05-08T10:53:40.613Z,91.87
2018-05-08T10:54:40.606Z,90.42
2018-05-08T10:55:40.769Z,89.65
2018-05-08T10:56:40.640Z,89.79
2018-05-08T10:57:40.654Z,89.69
2018-05-08T10:58:40.686Z,90.32
2018-05-08T10:59:40.687Z,89.35
2018-05-08T11:00:40.981Z,89.25
2018-05-08T11:01:40.776Z,89.15
2018-05-08T11:02:40.770Z,88.19
2018-05-08T11:03:40.889Z,87.90
2018-05-08T11:04:40.903Z,87.70
2018-05-08T11:05:41.023Z,86.87
2018-05-08T11:06:40.940Z,85.96
2018-05-08T11:07:40.854Z,86.19
2018-05-08T11:08:40.853Z,84.45
2018-05-08T11:09:40.868Z,83.33
2018-05-08T11:10:41.117Z,83.58
2018-05-08T11:11:40.921Z,83.42
2018-05-08T11:12:40.934Z,82.35
2018-05-08T11:13:40.944Z,82.30
2018-05-08T11:14:41.091Z,82.20
2018-05-08T11:15:41.210Z,80.30
2018-05-08T11:16:41.010Z,80.79
2018-05-08T11:17:41.148Z,79.63
2018-05-08T11:18:41.168Z,78.66
2018-05-08T11:19:41.075Z,79.49
2018-05-08T11:20:41.180Z,80.03
2018-05-08T11:21:41.110Z,81.25
2018-05-08T11:22:41.129Z,82.18
2018-05-08T11:23:41.138Z,82.81
2018-05-08T11:24:41.177Z,84.03
2018-05-08T11:25:41.291Z,84.52
2018-05-08T11:26:41.411Z,85.35
2018-05-08T11:27:41.218Z,85.59
2018-05-08T11:28:41.238Z,86.65
2018-05-08T11:29:41.252Z,87.13
2018-05-08T11:30:41.374Z,87.29
2018-05-08T11:31:41.294Z,88.06
2018-05-08T11:32:41.310Z,88.06
2018-05-08T11:33:41.337Z,88.73
2018-05-08T11:34:41.346Z,88.25
2018-05-08T11:35:41.520Z,88.45
2018-05-08T11:36:41.395Z,87.91
2018-05-08T11:37:41.400Z,86.94
2018-05-08T11:38:41.421Z,86.85
2018-05-08T11:39:41.440Z,86.85
2018-05-08T11:40:41.558Z,86.65
2018-05-08T11:41:41.476Z,86.75
2018-05-08T11:42:41.500Z,87.04
2018-05-08T11:43:41.513Z,87.38
2018-05-08T11:44:41.574Z,87.38
2018-05-08T11:45:41.881Z,88.25
2018-05-08T11:46:41.578Z,88.64
2018-05-08T11:47:41.711Z,88.11
2018-05-08T11:48:41.731Z,89.17
2018-05-08T11:49:41.747Z,88.98
2018-05-08T11:50:41.787Z,89.17
2018-05-08T11:51:41.660Z,88.98
2018-05-08T11:52:41.802Z,89.37
2018-05-08T11:53:41.686Z,89.65
2018-05-08T11:54:41.709Z,89.07
2018-05-08T11:55:41.836Z,89.22
2018-05-08T11:56:41.743Z,88.83
2018-05-08T11:57:41.785Z,89.22
2018-05-08T11:58:41.789Z,88.15
2018-05-08T11:59:41.796Z,88.64
2018-05-08T12:00:41.924Z,88.15
2018-05-08T12:01:41.836Z,88.01
2018-05-08T12:02:41.855Z,86.89
2018-05-08T12:03:41.993Z,86.65
2018-05-08T12:04:42.009Z,86.16
2018-05-08T12:05:42.167Z,85.29
2018-05-08T12:06:41.926Z,85.29
2018-05-08T12:07:42.063Z,84.13
2018-05-08T12:08:41.964Z,84.38
2018-05-08T12:09:42.054Z,84.28
2018-05-08T12:10:42.090Z,84.13
2018-05-08T12:11:42.030Z,83.55
2018-05-08T12:12:42.026Z,83.36
2018-05-08T12:13:42.170Z,83.74
2018-05-08T12:14:42.095Z,83.78
2018-05-08T12:15:42.234Z,82.91
2018-05-08T12:16:42.111Z,82.33
2018-05-08T12:17:42.251Z,82.14
2018-05-08T12:18:42.138Z,82.91
2018-05-08T12:19:42.163Z,83.30
2018-05-08T12:20:42.271Z,82.72
2018-05-08T12:22:42.348Z,82.04
2018-05-08T12:23:42.255Z,81.95
2018-05-08T12:24:43.378Z,81.95
2018-05-08T12:25:42.393Z,82.39
2018-05-08T12:26:42.311Z,82.20
2018-05-08T12:27:42.319Z,82.48
2018-05-08T12:28:42.334Z,83.41
2018-05-08T12:29:42.343Z,83.31
2018-05-08T12:30:42.780Z,83.41
2018-05-08T12:31:42.397Z,83.41
2018-05-08T12:32:42.568Z,83.22
2018-05-08T12:33:42.413Z,83.61
2018-05-08T12:34:42.436Z,83.03
2018-05-08T12:35:42.625Z,82.29
2018-05-08T12:36:42.475Z,82.00
2018-05-08T12:37:42.484Z,81.13
2018-05-08T12:38:42.627Z,80.94
2018-05-08T12:39:42.528Z,80.74
2018-05-08T12:40:42.553Z,80.07
2018-05-08T12:41:42.561Z,79.29
2018-05-08T12:42:42.781Z,79.97
2018-05-08T12:43:42.609Z,79.87
2018-05-08T12:44:42.613Z,79.91
2018-05-08T12:45:42.639Z,79.14
2018-05-08T12:46:42.664Z,79.24
2018-05-08T12:47:42.787Z,80.24
2018-05-08T12:48:42.700Z,79.37
2018-05-08T12:49:42.713Z,78.15
2018-05-08T12:50:42.733Z,77.86
2018-05-08T12:51:42.757Z,77.37
2018-05-08T12:52:42.989Z,76.89
2018-05-08T12:53:42.805Z,75.83
2018-05-08T12:54:42.928Z,75.34
2018-05-08T12:55:42.948Z,75.73
2018-05-08T12:56:42.963Z,75.83
2018-05-08T12:57:43.140Z,75.44